createdAt,value
2022-10-11T00:09:49.793Z,14.13
2022-10-11T00:19:52.851Z,14.03
2022-10-11T00:29:57.255Z,14.14
2022-10-11T00:40:00.908Z,14.04
2022-10-11T00:50:12.643Z,13.91
2022-10-11T01:00:16.840Z,13.66
2022-10-11T01:10:21.377Z,13.37
2022-10-11T01:20:39.203Z,13.09
2022-10-11T01:30:44.741Z,13.15
2022-10-11T01:40:52.682Z,12.97
2022-10-11T01:50:58.761Z,12.90
2022-10-11T02:01:10.689Z,12.64
2022-10-11T02:11:25.676Z,12.60
2022-10-11T02:21:28.922Z,12.76
2022-10-11T02:31:36.428Z,12.47
2022-10-11T02:41:43.142Z,12.40
2022-10-11T02:51:47.462Z,11.76
2022-10-11T03:01:51.690Z,11.86
2022-10-11T03:11:56.399Z,11.71
2022-10-11T03:21:59.392Z,11.86
2022-10-11T03:32:03.894Z,11.61
2022-10-11T03:42:06.913Z,11.40
2022-10-11T03:52:11.572Z,11.45
2022-10-11T04:02:14.532Z,11.50
2022-10-11T04:12:18.827Z,11.38
2022-10-11T04:22:21.657Z,11.42
2022-10-11T04:32:26.676Z,11.23
2022-10-11T04:42:32.403Z,11.50
2022-10-11T04:52:36.566Z,11.70
2022-10-11T05:02:39.659Z,11.48
2022-10-11T05:12:44.128Z,11.54
2022-10-11T05:22:47.462Z,11.18
2022-10-11T05:32:52.157Z,11.25
2022-10-11T05:42:55.156Z,11.35
2022-10-11T05:52:59.399Z,11.22
2022-10-11T06:03:02.351Z,11.34
2022-10-11T06:13:07.922Z,11.32
2022-10-11T06:23:10.910Z,11.02
2022-10-11T06:33:15.553Z,11.36
2022-10-11T06:43:18.676Z,11.43
2022-10-11T06:53:23.064Z,11.39
2022-10-11T07:03:26.170Z,11.77
2022-10-11T07:13:31.214Z,12.09
2022-10-11T07:23:34.632Z,11.84
2022-10-11T07:33:39.089Z,12.05
2022-10-11T07:43:43.615Z,11.86
2022-10-11T07:53:50.167Z,12.77
2022-10-11T08:03:53.972Z,12.22
2022-10-11T08:13:58.876Z,12.14
2022-10-11T08:24:03.215Z,12.02
2022-10-11T08:34:07.677Z,12.16
2022-10-11T08:44:58.373Z,12.26
2022-10-11T08:55:05.356Z,12.30
2022-10-11T09:05:15.191Z,12.40
2022-10-11T09:15:30.473Z,12.33
2022-10-11T09:25:36.454Z,12.46
2022-10-11T09:35:48.286Z,12.50
2022-10-11T09:45:51.902Z,12.78
2022-10-11T09:56:05.001Z,12.96
2022-10-11T10:06:11.559Z,13.52
2022-10-11T10:16:24.862Z,13.71
2022-10-11T10:26:28.690Z,13.91
2022-10-11T10:36:36.535Z,14.35
2022-10-11T10:46:50.370Z,14.54
2022-10-11T10:56:57.970Z,14.74
2022-10-11T11:07:08.280Z,14.90
2022-10-11T11:17:22.932Z,14.13
2022-10-11T11:27:40.808Z,14.65
2022-10-11T11:37:47.943Z,15.04
2022-10-11T11:47:54.041Z,15.01
2022-10-11T11:58:07.318Z,14.89
2022-10-11T12:08:26.663Z,15.52
2022-10-11T12:18:32.213Z,15.57
2022-10-11T12:29:02.441Z,15.85
2022-10-11T12:39:51.681Z,15.69
2022-10-11T12:50:11.314Z,15.80
2022-10-11T13:00:21.644Z,16.13
2022-10-11T13:10:31.398Z,15.86
2022-10-11T13:20:38.951Z,16.13
2022-10-11T13:30:49.663Z,16.19
2022-10-11T13:40:53.595Z,16.29
2022-10-11T13:51:08.861Z,16.05
2022-10-11T14:01:20.930Z,15.97
2022-10-11T14:11:37.601Z,16.07
2022-10-11T14:21:52.619Z,15.78
2022-10-11T14:32:02.655Z,15.95
2022-10-11T14:42:06.965Z,15.84
2022-10-11T14:52:14.758Z,15.84
2022-10-11T15:02:17.761Z,15.78
2022-10-11T15:12:22.087Z,15.68
2022-10-11T15:22:25.048Z,15.71
2022-10-11T15:32:29.171Z,15.59
2022-10-11T15:42:32.046Z,15.61
2022-10-11T15:52:36.259Z,15.50
2022-10-11T16:02:39.213Z,15.49
2022-10-11T16:12:43.526Z,15.30
2022-10-11T16:22:46.647Z,15.30
2022-10-11T16:32:51.171Z,15.24
2022-10-11T16:42:54.146Z,15.12
2022-10-11T16:52:59.677Z,14.98
2022-10-11T17:03:02.692Z,14.80
2022-10-11T17:13:07.022Z,14.69
2022-10-11T17:23:10.281Z,14.48
2022-10-11T17:33:14.550Z,14.42
2022-10-11T17:43:17.507Z,14.38
2022-10-11T17:53:22.935Z,14.07
2022-10-11T18:03:25.822Z,13.62
2022-10-11T18:13:30.603Z,13.52
2022-10-11T18:23:33.724Z,13.32
2022-10-11T18:33:38.414Z,13.30
2022-10-11T18:43:41.590Z,13.11
2022-10-11T18:53:46.646Z,12.93
2022-10-11T19:03:53.213Z,12.63
2022-10-11T19:13:59.206Z,12.31
2022-10-11T19:24:05.699Z,12.53
2022-10-11T19:34:10.332Z,12.55
2022-10-11T19:44:13.827Z,12.30
2022-10-11T19:54:18.941Z,11.97
2022-10-11T20:14:46.722Z,11.91
2022-10-11T20:24:54.233Z,12.18
2022-10-11T20:35:02.182Z,11.89
2022-10-11T20:45:05.752Z,11.88
2022-10-11T20:55:10.816Z,11.37
2022-10-11T21:05:13.770Z,11.53
2022-10-11T21:15:18.287Z,11.17
2022-10-11T21:25:21.485Z,10.90
2022-10-11T21:35:26.881Z,10.88
2022-10-11T21:45:29.806Z,10.80
2022-10-11T21:55:34.818Z,10.89
2022-10-11T22:05:44.276Z,10.64
2022-10-11T22:15:49.090Z,10.63
2022-10-11T22:25:52.042Z,10.29
2022-10-11T22:35:58.941Z,10.23
2022-10-11T22:46:02.705Z,10.40
2022-10-11T22:56:08.845Z,10.20
2022-10-11T23:06:11.818Z,9.90
2022-10-11T23:16:16.234Z,10.10
2022-10-11T23:26:19.230Z,9.71
2022-10-11T23:36:25.899Z,9.56
2022-10-11T23:46:29.460Z,9.32
2022-10-11T23:56:33.955Z,9.42
